»·PEaware :: N475RS KPDX-KSEA

N475RS :: KPDX-KSEA

FLIGHT INFORMATION

Flight Status: Arrived
Operator: Privately registered:
United States
More flights under this callsign
Pilot: Aker J. (16898)
Aircraft: EMBRAER EMB-190/195
(E190)
More flights by this aircraft type
Origin: KPDX Portland Intl
United States
Destination: KSEA Seattle-Tacoma Intl
United States
More flights between these airports :: More routes between these airports
Route: +PTLD1 COUGA KRIEG HAWKZ6
File this flight plan on PilotEdge
Remarks: Sample flight plan
Altitude:
(Current/Filed)
20,000ft
Speed:
(Current/Filed)
300kts
Departed: 07-Dec-17 04:38 PM
Arrived: 07-Dec-17 05:16 PM
Distance/Time
Traveled:
111nm/0:38
Distance/Time
To Go:
Arrived

Flight Plot

Page will automatically refresh every two minutes.

Flight plan parsing failed; only flown route is shown


Map Options




Map Legend


Flown Route
Filed Route
Departure Airport
Arrival Airport
Navaid (VOR, NDB)
Fix

Horizontal Profiles

Position Reports

Time Latitude Longitude Heading Altitude Ground
Speed
07-Dec-17 16:13 45.586918 -122.593151 41 24ft 0kts
07-Dec-17 16:14 45.586918 -122.593151 41 24ft 0kts
07-Dec-17 16:15 45.586918 -122.593151 41 24ft 0kts
07-Dec-17 16:16 45.586918 -122.593151 41 24ft 0kts
07-Dec-17 16:17 45.586918 -122.593151 41 24ft 0kts
07-Dec-17 16:24 45.586906 -122.593149 41 24ft 0kts
07-Dec-17 16:25 45.586906 -122.593149 41 24ft 0kts
07-Dec-17 16:26 45.586906 -122.593149 41 24ft 0kts
07-Dec-17 16:27 45.586906 -122.593149 41 24ft 0kts
07-Dec-17 16:28 45.586906 -122.593149 41 24ft 0kts
07-Dec-17 16:29 45.586906 -122.593149 41 24ft 0kts
07-Dec-17 16:30 45.586906 -122.593149 41 24ft 0kts
07-Dec-17 16:31 45.586906 -122.593149 41 24ft 0kts
07-Dec-17 16:32 45.586906 -122.593149 41 24ft 0kts
07-Dec-17 16:33 45.586906 -122.593149 41 24ft 0kts
07-Dec-17 16:34 45.586906 -122.593149 41 24ft 0kts
07-Dec-17 16:35 45.586600 -122.593232 347 24ft 9kts
07-Dec-17 16:36 45.586573 -122.593639 278 24ft 9kts
07-Dec-17 16:37 45.589328 -122.602852 300 23ft 25kts
07-Dec-17 16:38 45.592224 -122.600704 46 25ft 27kts
07-Dec-17 16:39 45.594299 -122.597757 45 27ft 0kts
07-Dec-17 16:40 45.594300 -122.597756 45 27ft 0kts
07-Dec-17 16:41 45.594311 -122.597738 46 27ft 2kts
07-Dec-17 16:42 45.594678 -122.597085 57 28ft 1kts
07-Dec-17 16:43 45.592361 -122.589360 117 25ft 133kts
07-Dec-17 16:44 45.571586 -122.535233 116 1347ft 151kts
07-Dec-17 16:45 45.550341 -122.480389 118 2960ft 195kts
07-Dec-17 16:46 45.529434 -122.409325 79 4699ft 213kts
07-Dec-17 16:47 45.576588 -122.409807 334 6403ft 283kts
07-Dec-17 16:48 45.596701 -122.421095 342 7012ft 295kts
07-Dec-17 16:49 45.672441 -122.459093 339 9484ft 295kts
07-Dec-17 16:50 45.749846 -122.499109 338 11986ft 301kts
07-Dec-17 16:51 45.829683 -122.540563 338 14496ft 314kts
07-Dec-17 16:52 45.910904 -122.582784 338 14992ft 316kts
07-Dec-17 16:53 45.992127 -122.625149 338 16791ft 326kts
07-Dec-17 16:54 46.076569 -122.669323 338 18763ft 337kts
07-Dec-17 16:55 46.165067 -122.691546 351 20009ft 394kts
07-Dec-17 16:56 46.272685 -122.712865 351 19971ft 396kts
07-Dec-17 16:57 46.380114 -122.724201 357 19276ft 394kts
07-Dec-17 16:58 46.485867 -122.728164 357 17241ft 369kts
07-Dec-17 16:59 46.585089 -122.731747 357 15232ft 351kts
07-Dec-17 17:00 46.651320 -122.733045 7 13814ft 341kts
07-Dec-17 17:01 46.742038 -122.736964 357 11871ft 327kts
07-Dec-17 17:02 46.755521 -122.737596 357 11575ft 326kts
07-Dec-17 17:03 46.815800 -122.694006 30 10078ft 316kts
07-Dec-17 17:04 46.882473 -122.624915 37 10356ft 301kts
07-Dec-17 17:05 46.950336 -122.559164 19 11970ft 299kts
07-Dec-17 17:06 47.027032 -122.523284 15 11986ft 295kts
07-Dec-17 17:07 47.104819 -122.496286 6 11402ft 297kts
07-Dec-17 17:08 47.177864 -122.482361 5 10009ft 260kts
07-Dec-17 17:10 47.247654 -122.471348 4 8742ft 247kts
07-Dec-17 17:11 47.314704 -122.461087 4 7951ft 244kts
07-Dec-17 17:12 47.381397 -122.455532 358 7168ft 246kts
07-Dec-17 17:13 47.445472 -122.455356 357 6408ft 225kts
07-Dec-17 17:14 47.505270 -122.455353 0 5996ft 223kts
07-Dec-17 17:15 47.554765 -122.446229 5 5222ft 221kts
07-Dec-17 17:16 47.603438 -122.434755 27 4388ft 220kts
07-Dec-17 17:17 47.621845 -122.366182 74 3649ft 178kts
07-Dec-17 17:18 47.611743 -122.306084 173 2809ft 187kts
07-Dec-17 17:19 47.563060 -122.318000 173 1333ft 172kts
07-Dec-17 17:20 47.521457 -122.316097 175 876ft 142kts
07-Dec-17 17:21 47.483355 -122.317676 182 531ft 132kts
07-Dec-17 17:22 47.455133 -122.318007 180 334ft 15kts
07-Dec-17 17:23 47.448180 -122.316855 153 376ft 0kts
07-Dec-17 17:24 47.446455 -122.312151 93 390ft 29kts
07-Dec-17 17:25 47.442771 -122.306382 172 384ft 12kts
07-Dec-17 17:26 47.439972 -122.303181 62 378ft 8kts
07-Dec-17 17:27 47.505844 -122.317171 183 732ft 146kts
07-Dec-17 17:28 47.468601 -122.317699 180 391ft 140kts
07-Dec-17 17:29 47.477351 -122.317782 181 449ft 136kts
07-Dec-17 17:29 47.440549 -122.303162 338 380ft 0kts
07-Dec-17 17:30 47.431741 -122.306736 268 322ft 0kts
07-Dec-17 17:32 47.431741 -122.306736 268 322ft 0kts
07-Dec-17 17:32 47.431741 -122.306736 268 322ft 0kts
07-Dec-17 17:33 47.431741 -122.306736 268 322ft 0kts
07-Dec-17 17:34 47.431741 -122.306736 268 322ft 0kts
07-Dec-17 17:36 47.431739 -122.306850 269 322ft 7kts

Navigation Log

Ident Type
Flight plan parsing failed, navigation log unavailable